createdAt,value
2018-09-17T00:01:38.201Z,19.80
2018-09-17T00:04:06.452Z,19.60
2018-09-17T00:06:34.606Z,19.60
2018-09-17T00:09:02.905Z,19.70
2018-09-17T00:11:31.130Z,19.60
2018-09-17T00:13:59.342Z,19.60
2018-09-17T00:16:27.670Z,19.60
2018-09-17T00:18:56.118Z,19.50
2018-09-17T00:21:24.482Z,19.30
2018-09-17T00:23:52.665Z,19.50
2018-09-17T00:26:20.988Z,19.50
2018-09-17T00:28:49.382Z,19.50
2018-09-17T00:31:17.674Z,19.50
2018-09-17T00:33:45.922Z,19.50
2018-09-17T00:36:14.309Z,19.60
2018-09-17T00:38:42.636Z,19.60
2018-09-17T00:41:11.599Z,19.40
2018-09-17T00:43:39.961Z,19.30
2018-09-17T00:46:08.215Z,19.40
2018-09-17T00:48:36.431Z,19.40
2018-09-17T00:51:05.118Z,19.40
2018-09-17T00:53:33.665Z,19.40
2018-09-17T00:56:03.298Z,19.40
2018-09-17T00:58:31.815Z,19.40
2018-09-17T01:01:00.101Z,19.30
2018-09-17T01:03:28.306Z,19.30
2018-09-17T01:05:56.577Z,19.40
2018-09-17T01:08:24.858Z,19.50
2018-09-17T01:10:53.090Z,19.40
2018-09-17T01:13:21.369Z,19.40
2018-09-17T01:15:49.596Z,19.30
2018-09-17T01:18:17.878Z,19.40
2018-09-17T01:20:46.106Z,19.30
2018-09-17T01:23:14.469Z,19.30
2018-09-17T01:25:42.686Z,19.20
2018-09-17T01:28:10.978Z,19.20
2018-09-17T01:30:39.509Z,19.20
2018-09-17T01:33:07.753Z,19.10
2018-09-17T01:35:36.157Z,19.10
2018-09-17T01:38:04.878Z,19.10
2018-09-17T01:40:33.614Z,19.00
2018-09-17T01:43:01.800Z,19.00
2018-09-17T01:45:30.109Z,19.10
2018-09-17T01:47:58.437Z,19.10
2018-09-17T01:50:26.713Z,18.90
2018-09-17T01:52:55.118Z,19.00
2018-09-17T01:55:23.394Z,18.90
2018-09-17T01:57:51.614Z,18.90
2018-09-17T02:00:20.007Z,18.90
2018-09-17T02:02:48.333Z,18.90
2018-09-17T02:05:16.548Z,18.90
2018-09-17T02:07:44.761Z,18.80
2018-09-17T02:10:13.041Z,18.90
2018-09-17T02:12:41.937Z,18.80
2018-09-17T02:15:10.512Z,18.80
2018-09-17T02:17:38.797Z,18.80
2018-09-17T02:20:07.789Z,18.80
2018-09-17T02:22:36.063Z,18.80
2018-09-17T02:25:04.880Z,18.80
2018-09-17T02:27:33.255Z,18.90
2018-09-17T02:30:01.536Z,18.90
2018-09-17T02:32:29.774Z,19.00
2018-09-17T02:34:58.031Z,19.10
2018-09-17T02:37:26.762Z,19.10
2018-09-17T02:39:55.098Z,19.20
2018-09-17T02:42:23.349Z,19.10
2018-09-17T02:44:51.602Z,19.20
2018-09-17T02:47:20.011Z,19.10
2018-09-17T02:49:48.335Z,19.10
2018-09-17T02:52:16.631Z,19.20
2018-09-17T02:54:44.849Z,19.10
2018-09-17T02:57:13.152Z,19.00
2018-09-17T02:59:41.435Z,19.00
2018-09-17T03:02:10.672Z,19.00
2018-09-17T03:04:38.885Z,19.00
2018-09-17T03:07:07.223Z,19.00
2018-09-17T03:09:35.479Z,19.00
2018-09-17T03:12:03.832Z,19.00
2018-09-17T03:14:32.222Z,19.10
2018-09-17T03:17:08.395Z,19.10
2018-09-17T03:19:36.638Z,19.10
2018-09-17T03:22:04.944Z,19.10
2018-09-17T03:24:33.215Z,19.20
2018-09-17T03:27:01.400Z,19.20
2018-09-17T03:29:29.723Z,19.10
2018-09-17T03:31:58.022Z,19.00
2018-09-17T03:34:26.724Z,18.90
2018-09-17T03:36:54.940Z,18.80
2018-09-17T03:39:23.224Z,18.80
2018-09-17T03:41:51.451Z,18.70
2018-09-17T03:44:20.000Z,18.70
2018-09-17T03:46:48.331Z,18.70
2018-09-17T03:49:16.657Z,18.60
2018-09-17T03:51:45.034Z,18.70
2018-09-17T03:54:13.371Z,18.70
2018-09-17T03:56:41.775Z,18.60
2018-09-17T03:59:10.181Z,18.60
2018-09-17T04:01:38.560Z,18.50
2018-09-17T04:04:06.902Z,18.40
2018-09-17T04:06:35.242Z,18.40
2018-09-17T04:09:05.262Z,18.50
2018-09-17T04:11:33.727Z,18.50
2018-09-17T04:14:01.957Z,18.40
2018-09-17T04:16:30.223Z,18.40
2018-09-17T04:18:59.217Z,18.40
2018-09-17T04:21:27.567Z,18.40
2018-09-17T04:23:55.849Z,18.40
2018-09-17T04:26:24.111Z,18.40
2018-09-17T04:28:52.318Z,18.30
2018-09-17T04:31:20.537Z,18.30
2018-09-17T04:33:48.937Z,18.30
2018-09-17T04:36:17.163Z,18.30
2018-09-17T04:38:45.380Z,18.20
2018-09-17T04:41:13.597Z,18.00
2018-09-17T04:43:41.925Z,18.00
2018-09-17T04:46:10.829Z,18.00
2018-09-17T04:48:39.106Z,18.00
2018-09-17T04:51:07.319Z,18.00
2018-09-17T04:53:35.541Z,18.00
2018-09-17T04:56:03.833Z,17.90
2018-09-17T04:58:32.146Z,17.90
2018-09-17T05:01:00.370Z,17.90
2018-09-17T05:03:28.566Z,18.00
2018-09-17T05:05:56.881Z,18.00
2018-09-17T05:08:25.159Z,18.00
2018-09-17T05:10:53.374Z,18.00
2018-09-17T05:13:21.856Z,18.00
2018-09-17T05:15:51.018Z,18.00
2018-09-17T05:18:19.409Z,18.00
2018-09-17T05:20:47.920Z,18.00
2018-09-17T05:23:16.075Z,17.90
2018-09-17T05:25:44.353Z,17.80
2018-09-17T05:28:12.620Z,17.80
2018-09-17T05:30:40.853Z,17.80
2018-09-17T05:33:09.102Z,17.90
2018-09-17T05:35:37.399Z,17.90
2018-09-17T05:38:05.740Z,18.00
2018-09-17T05:40:34.163Z,18.00
2018-09-17T05:43:04.693Z,18.10
2018-09-17T05:45:33.245Z,18.20
2018-09-17T05:48:01.470Z,18.30
2018-09-17T05:50:29.732Z,18.30
2018-09-17T05:52:57.941Z,18.30
2018-09-17T05:55:26.337Z,18.40
2018-09-17T05:57:54.670Z,18.60
2018-09-17T06:00:22.873Z,18.60
2018-09-17T06:02:51.110Z,18.70
2018-09-17T06:05:19.422Z,18.70
2018-09-17T06:07:47.735Z,18.70
2018-09-17T06:10:17.012Z,18.70
2018-09-17T06:12:46.925Z,18.70
2018-09-17T06:15:15.626Z,18.90
2018-09-17T06:17:43.857Z,18.90
2018-09-17T06:20:12.176Z,19.00
2018-09-17T06:22:40.610Z,19.10
2018-09-17T06:25:08.849Z,19.20
2018-09-17T06:27:37.079Z,19.20
2018-09-17T06:30:06.019Z,19.30
2018-09-17T06:32:34.500Z,19.50
2018-09-17T06:35:02.764Z,19.50
2018-09-17T06:37:30.989Z,19.60
2018-09-17T06:39:59.186Z,19.60
2018-09-17T06:42:27.711Z,19.70
2018-09-17T06:44:56.005Z,19.80
2018-09-17T06:47:24.249Z,19.90
2018-09-17T06:49:52.468Z,20.10
2018-09-17T06:52:20.687Z,20.30
2018-09-17T06:54:49.098Z,20.60
2018-09-17T06:57:17.325Z,21.00
2018-09-17T06:59:45.552Z,21.40
2018-09-17T07:02:13.778Z,22.00
2018-09-17T07:04:42.129Z,22.40
2018-09-17T07:07:10.361Z,22.40
2018-09-17T07:09:38.606Z,22.40
2018-09-17T07:12:06.837Z,22.50
2018-09-17T07:14:35.119Z,22.40
2018-09-17T07:17:03.458Z,22.50
2018-09-17T07:19:31.685Z,22.50
2018-09-17T07:21:59.916Z,22.70
2018-09-17T07:24:28.183Z,22.70
2018-09-17T07:26:56.423Z,22.90
2018-09-17T07:29:24.908Z,23.20
2018-09-17T07:31:53.112Z,23.50
2018-09-17T07:34:21.328Z,23.70
2018-09-17T07:36:49.729Z,23.80
2018-09-17T07:39:17.953Z,24.00
2018-09-17T07:41:46.325Z,24.30
2018-09-17T07:44:14.549Z,24.60
2018-09-17T07:46:42.785Z,25.20
2018-09-17T07:49:11.113Z,26.30
2018-09-17T07:51:39.337Z,27.40
2018-09-17T07:54:07.553Z,28.00
2018-09-17T07:56:35.749Z,28.30
2018-09-17T07:59:04.642Z,28.70
2018-09-17T08:01:32.883Z,29.30
2018-09-17T08:04:01.117Z,30.80
2018-09-17T08:06:29.385Z,33.00
2018-09-17T08:08:57.920Z,35.10
2018-09-17T08:11:26.332Z,36.90
2018-09-17T08:13:54.634Z,37.70
2018-09-17T08:16:22.870Z,38.80
2018-09-17T08:18:51.125Z,39.60
2018-09-17T08:21:19.643Z,40.80
2018-09-17T08:23:48.010Z,41.70
2018-09-17T08:26:16.285Z,42.50
2018-09-17T08:28:44.660Z,42.90
2018-09-17T08:31:13.257Z,43.50
2018-09-17T08:33:42.414Z,44.40
2018-09-17T08:36:11.051Z,45.30
2018-09-17T08:38:39.345Z,46.20
2018-09-17T08:41:07.781Z,46.90
2018-09-17T08:43:36.080Z,47.60
2018-09-17T08:46:04.419Z,48.20
2018-09-17T08:48:32.846Z,48.80
2018-09-17T08:51:01.072Z,49.50
2018-09-17T08:53:29.292Z,50.30
2018-09-17T08:55:59.669Z,50.90
2018-09-17T08:58:33.485Z,51.70
2018-09-17T09:01:03.633Z,52.10
2018-09-17T09:03:37.437Z,51.80
2018-09-17T09:06:11.230Z,51.30
2018-09-17T09:08:39.461Z,51.00
2018-09-17T09:11:13.163Z,51.30
2018-09-17T09:13:46.857Z,51.60
2018-09-17T09:16:15.089Z,52.20
2018-09-17T09:18:43.316Z,52.40
2018-09-17T09:21:11.653Z,52.60
2018-09-17T09:23:40.602Z,52.50
2018-09-17T09:26:08.872Z,51.70
2018-09-17T09:28:37.031Z,51.40
2018-09-17T09:31:05.322Z,51.60
2018-09-17T09:33:33.732Z,52.20
2018-09-17T09:36:01.967Z,52.70
2018-09-17T09:38:30.194Z,52.50
2018-09-17T09:40:58.411Z,52.10
2018-09-17T09:43:27.197Z,52.20
2018-09-17T09:45:55.731Z,52.90
2018-09-17T09:48:23.954Z,53.80
2018-09-17T09:50:52.193Z,54.60
2018-09-17T09:53:20.517Z,54.20
2018-09-17T09:55:48.878Z,53.50
2018-09-17T09:58:17.118Z,53.70
2018-09-17T10:00:50.790Z,53.80
2018-09-17T10:03:24.456Z,54.10
2018-09-17T10:05:52.749Z,54.30
2018-09-17T10:08:20.985Z,54.50
2018-09-17T10:10:54.705Z,54.40
2018-09-17T10:13:28.157Z,54.80
2018-09-17T10:15:57.582Z,55.40
2018-09-17T10:18:31.197Z,55.90
2018-09-17T10:20:59.751Z,56.60
2018-09-17T10:23:28.265Z,57.50
2018-09-17T10:25:57.054Z,58.00
2018-09-17T10:28:25.973Z,58.50
2018-09-17T10:30:54.273Z,58.70
2018-09-17T10:33:22.482Z,58.80
2018-09-17T10:35:50.748Z,58.60
2018-09-17T10:38:18.961Z,58.30
2018-09-17T10:40:47.172Z,58.30
2018-09-17T10:43:15.408Z,57.90
2018-09-17T10:45:43.651Z,57.80
2018-09-17T10:48:11.982Z,56.90
2018-09-17T10:50:40.221Z,56.50
2018-09-17T10:53:08.750Z,56.60
2018-09-17T10:55:36.977Z,56.10
2018-09-17T10:58:05.858Z,55.80
2018-09-17T11:00:34.558Z,56.50
2018-09-17T11:03:02.902Z,57.40
2018-09-17T11:05:31.101Z,58.10
2018-09-17T11:07:59.314Z,58.50
2018-09-17T11:10:27.758Z,57.70
2018-09-17T11:12:56.159Z,56.70
2018-09-17T11:15:28.667Z,55.10
2018-09-17T11:17:57.201Z,53.00
2018-09-17T11:20:25.472Z,53.10
2018-09-17T11:22:53.721Z,53.60
2018-09-17T11:25:21.933Z,53.20
2018-09-17T11:27:50.328Z,53.20
2018-09-17T11:30:19.022Z,53.30
2018-09-17T11:32:47.966Z,53.80
2018-09-17T11:35:16.357Z,53.40
2018-09-17T11:37:44.667Z,54.10
2018-09-17T11:40:14.046Z,54.60
2018-09-17T11:42:43.795Z,55.10
2018-09-17T11:45:12.314Z,55.60
2018-09-17T11:47:40.644Z,56.10
2018-09-17T11:50:09.012Z,56.20
2018-09-17T11:52:37.237Z,56.10
2018-09-17T11:55:05.642Z,55.40
2018-09-17T11:57:33.891Z,54.30
2018-09-17T12:00:02.158Z,53.10
2018-09-17T12:02:32.272Z,52.00
2018-09-17T12:05:07.786Z,50.90
2018-09-17T12:07:42.104Z,49.90
2018-09-17T12:10:11.461Z,49.30
2018-09-17T12:12:40.489Z,48.50
2018-09-17T12:15:09.585Z,48.00
2018-09-17T12:17:37.837Z,48.00
2018-09-17T12:20:06.170Z,48.90
2018-09-17T12:22:35.195Z,49.70
2018-09-17T12:25:03.436Z,50.00
2018-09-17T12:27:31.645Z,50.30
2018-09-17T12:29:59.900Z,50.80
2018-09-17T12:32:28.175Z,51.60
2018-09-17T12:34:56.605Z,52.20
2018-09-17T12:37:25.164Z,53.20
2018-09-17T12:39:53.414Z,54.10
2018-09-17T12:42:21.646Z,54.90
2018-09-17T12:44:50.429Z,55.60
2018-09-17T12:47:19.222Z,56.10
2018-09-17T12:49:47.479Z,56.20
2018-09-17T12:52:15.762Z,56.10
2018-09-17T12:54:43.973Z,56.40
2018-09-17T12:57:13.117Z,56.60
2018-09-17T12:59:41.322Z,56.10
2018-09-17T13:02:09.599Z,54.60
2018-09-17T13:04:37.833Z,51.20
2018-09-17T13:07:06.093Z,47.50
2018-09-17T13:09:34.425Z,44.60
2018-09-17T13:12:02.704Z,42.70
2018-09-17T13:14:30.957Z,41.20
2018-09-17T13:16:59.464Z,40.10
2018-09-17T13:19:28.589Z,39.60
2018-09-17T13:21:56.941Z,39.40
2018-09-17T13:24:25.284Z,39.30
2018-09-17T13:26:53.515Z,38.90
2018-09-17T13:29:21.801Z,38.70
2018-09-17T13:31:50.568Z,38.20
2018-09-17T13:34:19.018Z,38.20
2018-09-17T13:36:47.383Z,38.00
2018-09-17T13:39:15.711Z,37.60
2018-09-17T13:41:43.993Z,36.90
2018-09-17T13:44:13.052Z,36.80
2018-09-17T13:46:41.463Z,36.70
2018-09-17T13:49:09.762Z,36.60
2018-09-17T13:51:38.101Z,36.40
2018-09-17T13:54:06.364Z,36.10
2018-09-17T13:56:34.819Z,35.80
2018-09-17T13:59:03.219Z,35.50
2018-09-17T14:01:31.446Z,34.80
2018-09-17T14:03:59.749Z,34.30
2018-09-17T14:06:27.985Z,33.70
2018-09-17T14:08:56.434Z,33.50
2018-09-17T14:11:24.740Z,33.40
2018-09-17T14:13:52.977Z,33.40
2018-09-17T14:16:26.738Z,33.50
2018-09-17T14:18:55.081Z,33.40
2018-09-17T14:21:23.527Z,32.70
2018-09-17T14:23:51.764Z,32.60
2018-09-17T14:26:20.409Z,32.80
2018-09-17T14:28:48.608Z,33.00
2018-09-17T14:31:21.211Z,33.20
2018-09-17T14:33:50.050Z,33.30
2018-09-17T14:36:18.765Z,33.40
2018-09-17T14:38:47.011Z,33.30
2018-09-17T14:41:15.285Z,33.30
2018-09-17T14:43:43.690Z,33.50
2018-09-17T14:46:11.911Z,33.50
2018-09-17T14:48:40.256Z,33.40
2018-09-17T14:51:08.621Z,33.50
2018-09-17T14:53:37.116Z,33.60
2018-09-17T14:56:05.541Z,33.40
2018-09-17T14:58:34.012Z,33.40
2018-09-17T15:01:02.878Z,33.40
2018-09-17T15:03:31.265Z,33.50
2018-09-17T15:05:59.713Z,33.80
2018-09-17T15:08:28.171Z,34.80
2018-09-17T15:10:56.507Z,35.80
2018-09-17T15:13:24.751Z,36.50
2018-09-17T15:15:59.679Z,36.90
2018-09-17T15:18:28.265Z,36.70
2018-09-17T15:20:56.581Z,36.10
2018-09-17T15:23:24.835Z,35.90
2018-09-17T15:25:53.089Z,35.90
2018-09-17T15:28:21.332Z,35.90
2018-09-17T15:30:49.617Z,36.80
2018-09-17T15:33:17.869Z,37.80
2018-09-17T15:35:46.142Z,38.70
2018-09-17T15:38:14.419Z,39.50
2018-09-17T15:40:42.766Z,40.20
2018-09-17T15:43:19.244Z,40.80
2018-09-17T15:45:48.104Z,41.30
2018-09-17T15:48:17.305Z,41.40
2018-09-17T15:50:47.269Z,41.80
2018-09-17T15:53:15.761Z,42.00
2018-09-17T15:55:44.143Z,42.30
2018-09-17T15:58:13.603Z,42.30
2018-09-17T16:00:41.940Z,42.10
2018-09-17T16:03:10.325Z,41.90
2018-09-17T16:05:38.539Z,41.70
2018-09-17T16:08:06.997Z,41.40
2018-09-17T16:10:35.395Z,41.10
2018-09-17T16:13:04.424Z,40.70
2018-09-17T16:15:32.803Z,40.40
2018-09-17T16:18:01.333Z,40.30
2018-09-17T16:20:29.677Z,40.10
2018-09-17T16:22:58.858Z,39.80
2018-09-17T16:25:27.293Z,39.70
2018-09-17T16:27:55.672Z,39.70
2018-09-17T16:30:23.915Z,39.50
2018-09-17T16:32:52.124Z,39.30
2018-09-17T16:35:20.678Z,39.00
2018-09-17T16:37:49.651Z,38.70
2018-09-17T16:40:17.909Z,38.40
2018-09-17T16:42:46.165Z,38.10
2018-09-17T16:45:14.491Z,37.80
2018-09-17T16:47:43.012Z,37.50
2018-09-17T16:50:11.209Z,37.20
2018-09-17T16:52:39.479Z,36.70
2018-09-17T16:55:07.855Z,36.30
2018-09-17T16:57:36.074Z,35.90
2018-09-17T17:00:04.457Z,35.30
2018-09-17T17:02:32.759Z,34.80
2018-09-17T17:05:01.157Z,34.20
2018-09-17T17:07:29.240Z,33.70
2018-09-17T17:09:57.645Z,33.20
2018-09-17T17:12:25.945Z,32.60
2018-09-17T17:14:54.316Z,32.20
2018-09-17T17:17:22.848Z,31.80
2018-09-17T17:19:51.079Z,31.50
2018-09-17T17:22:19.514Z,31.20
2018-09-17T17:24:47.865Z,30.90
2018-09-17T17:27:16.069Z,30.60
2018-09-17T17:29:44.294Z,30.30
2018-09-17T17:32:12.649Z,30.00
2018-09-17T17:34:42.005Z,29.90
2018-09-17T17:37:10.382Z,29.60
2018-09-17T17:39:39.642Z,29.50
2018-09-17T17:42:07.728Z,29.20
2018-09-17T17:44:35.933Z,29.10
2018-09-17T17:47:04.208Z,29.00
2018-09-17T17:49:32.469Z,28.80
2018-09-17T17:52:00.802Z,28.60
2018-09-17T17:54:28.934Z,28.60
2018-09-17T17:56:57.401Z,28.50
2018-09-17T17:59:25.681Z,28.40
2018-09-17T18:01:53.925Z,28.20
2018-09-17T18:04:24.157Z,28.10
2018-09-17T18:06:52.325Z,27.90
2018-09-17T18:09:20.806Z,27.80
2018-09-17T18:11:50.045Z,27.70
2018-09-17T18:14:18.354Z,27.60
2018-09-17T18:16:46.548Z,27.60
2018-09-17T18:19:15.103Z,27.50
2018-09-17T18:21:43.495Z,27.50
2018-09-17T18:24:11.741Z,27.40
2018-09-17T18:26:39.995Z,27.30
2018-09-17T18:29:08.172Z,27.30
2018-09-17T18:31:36.391Z,27.10
2018-09-17T18:34:04.789Z,27.00
2018-09-17T18:36:33.038Z,26.90
2018-09-17T18:39:01.361Z,26.80
2018-09-17T18:41:29.457Z,26.70
2018-09-17T18:43:58.732Z,26.60
2018-09-17T18:46:27.176Z,26.50
2018-09-17T18:48:55.400Z,26.40
2018-09-17T18:51:23.601Z,26.30
2018-09-17T18:53:51.830Z,26.30
2018-09-17T18:56:20.341Z,26.30
2018-09-17T18:58:48.661Z,26.20
2018-09-17T19:01:16.901Z,26.20
2018-09-17T19:03:45.154Z,26.10
2018-09-17T19:06:13.379Z,26.10
2018-09-17T19:08:42.123Z,25.90
2018-09-17T19:11:10.354Z,25.90
2018-09-17T19:13:38.771Z,25.90
2018-09-17T19:16:07.343Z,25.90
2018-09-17T19:18:35.626Z,25.90
2018-09-17T19:21:04.054Z,25.80
2018-09-17T19:23:37.721Z,25.70
2018-09-17T19:26:05.984Z,25.60
2018-09-17T19:28:39.668Z,25.70
2018-09-17T19:31:07.875Z,25.60
2018-09-17T19:33:36.078Z,25.40
2018-09-17T19:36:04.670Z,25.40
2018-09-17T19:38:38.229Z,25.30
2018-09-17T19:41:06.705Z,25.30
2018-09-17T19:43:47.810Z,25.10
2018-09-17T19:46:18.098Z,25.10
2018-09-17T19:48:47.148Z,25.00
2018-09-17T19:51:23.073Z,25.10
2018-09-17T19:53:51.385Z,25.10
2018-09-17T19:56:20.233Z,25.10
2018-09-17T19:58:54.726Z,25.00
2018-09-17T20:01:25.712Z,25.00
2018-09-17T20:03:54.785Z,24.80
2018-09-17T20:06:29.561Z,24.80
2018-09-17T20:08:58.672Z,24.70
2018-09-17T20:11:27.299Z,24.60
2018-09-17T20:13:56.635Z,24.40
2018-09-17T20:16:26.746Z,24.40
2018-09-17T20:18:55.101Z,24.20
2018-09-17T20:21:30.445Z,24.10
2018-09-17T20:23:58.763Z,24.00
2018-09-17T20:26:27.172Z,23.70
2018-09-17T20:28:58.352Z,23.70
2018-09-17T20:31:27.445Z,23.80
2018-09-17T20:33:56.175Z,23.80
2018-09-17T20:36:31.463Z,23.70
2018-09-17T20:39:00.019Z,23.60
2018-09-17T20:41:28.254Z,23.40
2018-09-17T20:43:56.790Z,23.50
2018-09-17T20:46:25.855Z,23.50
2018-09-17T20:48:54.158Z,23.60
2018-09-17T20:51:22.543Z,23.60
2018-09-17T20:53:50.769Z,23.50
2018-09-17T20:56:19.003Z,23.50
2018-09-17T20:58:47.561Z,23.50
2018-09-17T21:01:23.397Z,23.40
2018-09-17T21:03:51.902Z,23.30
2018-09-17T21:06:20.263Z,23.30
2018-09-17T21:08:48.614Z,23.20
2018-09-17T21:11:16.859Z,23.20
2018-09-17T21:13:45.205Z,23.20
2018-09-17T21:16:13.515Z,23.10
2018-09-17T21:18:41.976Z,23.10
2018-09-17T21:21:10.739Z,23.10
2018-09-17T21:23:39.068Z,23.10
2018-09-17T21:26:07.441Z,23.10
2018-09-17T21:28:35.775Z,23.10
2018-09-17T21:31:04.023Z,23.00
2018-09-17T21:33:32.238Z,23.00
2018-09-17T21:36:00.592Z,22.90
2018-09-17T21:38:29.026Z,23.00
2018-09-17T21:40:58.012Z,23.10
2018-09-17T21:43:26.313Z,23.10
2018-09-17T21:45:54.604Z,23.00
2018-09-17T21:48:23.168Z,23.10
2018-09-17T21:50:51.457Z,22.90
2018-09-17T21:53:20.131Z,22.90
2018-09-17T21:55:48.627Z,22.80
2018-09-17T21:58:16.948Z,22.80
2018-09-17T22:00:50.754Z,22.70
2018-09-17T22:03:19.079Z,22.60
2018-09-17T22:05:47.514Z,22.60
2018-09-17T22:08:15.803Z,22.60
2018-09-17T22:10:44.038Z,22.70
2018-09-17T22:13:12.451Z,22.70
2018-09-17T22:15:40.867Z,22.70
2018-09-17T22:18:09.141Z,22.70
2018-09-17T22:20:37.392Z,22.70
2018-09-17T22:23:05.809Z,22.50
2018-09-17T22:25:34.275Z,22.50
2018-09-17T22:28:03.161Z,22.50
2018-09-17T22:30:31.548Z,22.50
2018-09-17T22:33:00.022Z,22.60
2018-09-17T22:35:28.401Z,22.50
2018-09-17T22:37:56.793Z,22.60
2018-09-17T22:40:25.191Z,22.50
2018-09-17T22:42:53.473Z,22.50
2018-09-17T22:45:21.841Z,22.50
2018-09-17T22:47:50.357Z,22.40
2018-09-17T22:50:18.718Z,22.40
2018-09-17T22:52:47.118Z,22.40
2018-09-17T22:55:15.722Z,22.40
2018-09-17T22:57:44.238Z,22.30
2018-09-17T23:00:12.687Z,22.30
2018-09-17T23:02:41.146Z,22.30
2018-09-17T23:05:09.520Z,22.20
2018-09-17T23:07:37.741Z,22.10
2018-09-17T23:10:07.362Z,22.00
2018-09-17T23:12:35.726Z,22.00
2018-09-17T23:15:03.980Z,22.10
2018-09-17T23:17:32.213Z,22.00
2018-09-17T23:20:00.515Z,22.00
2018-09-17T23:22:29.049Z,22.00
2018-09-17T23:24:57.344Z,21.90
2018-09-17T23:27:25.581Z,21.90
2018-09-17T23:29:53.806Z,21.90
2018-09-17T23:32:22.032Z,21.90
2018-09-17T23:34:50.338Z,21.80
2018-09-17T23:37:19.058Z,21.80
2018-09-17T23:39:47.316Z,21.70
2018-09-17T23:42:15.537Z,21.70
2018-09-17T23:44:43.927Z,21.70
2018-09-17T23:47:12.230Z,21.60
2018-09-17T23:49:40.754Z,21.50
2018-09-17T23:52:08.986Z,21.50
2018-09-17T23:54:37.250Z,21.50
2018-09-17T23:57:05.590Z,21.50
2018-09-17T23:59:33.902Z,21.40
